Time;durP1;ratioP1;P1;durP2;ratioP2;P2;SDS_P1;SDS_P2;PMS_P1;PMS_P2;Temp;Humidity;BMP_temperature;BMP_pressure;BME280_temperature;BME280_humidity;BME280_pressure;Samples;Min_cycle;Max_cycle;Signal;HPM_P1;HPM_P2
2022/01/20 00:01:47;;;;;;;3.43;2.80;;;17.10;55.80;18.30;101498.00;;;;5053859;28;20712;-48
2022/01/20 00:04:25;;;;;;;4.17;3.23;;;17.10;55.70;18.20;101504.00;;;;5052231;28;20190;-49
2022/01/20 00:23:18;;;;;;;4.07;2.70;;;17.00;55.80;18.00;101497.00;;;;5033475;28;20186;-49
2022/01/20 00:26:02;;;;;;;3.57;2.80;;;16.90;55.70;18.00;101501.00;;;;5033704;28;20159;-50
2022/01/20 00:28:43;;;;;;;3.10;2.80;;;16.90;55.80;18.00;101505.00;;;;5032851;28;20252;-48
2022/01/20 00:33:49;;;;;;;3.30;3.00;;;16.90;55.80;17.90;101509.00;;;;5032978;28;20227;-48
2022/01/20 00:38:59;;;;;;;3.20;2.60;;;16.90;55.80;17.90;101522.00;;;;5033316;28;20534;-48
2022/01/20 00:41:24;;;;;;;3.80;2.97;;;16.80;55.80;17.90;101517.00;;;;5032741;28;20171;-48
2022/01/20 00:43:50;;;;;;;3.67;2.90;;;16.80;55.70;17.80;101517.00;;;;5032229;28;20182;-48
2022/01/20 00:46:16;;;;;;;2.90;2.60;;;16.80;55.70;17.80;101507.00;;;;5032955;28;20179;-48
2022/01/20 00:48:42;;;;;;;3.17;2.87;;;16.80;56.10;17.80;101508.00;;;;5033403;28;20182;-48
2022/01/20 00:51:08;;;;;;;3.00;2.70;;;16.80;55.70;17.80;101504.00;;;;5032886;28;20183;-48
2022/01/20 00:53:34;;;;;;;2.97;2.67;;;16.80;55.90;17.80;101511.00;;;;5033123;28;20211;-49
2022/01/20 00:56:00;;;;;;;3.53;2.70;;;16.70;55.80;17.80;101518.00;;;;5032616;28;20167;-48
2022/01/20 00:58:26;;;;;;;2.60;2.40;;;16.70;55.60;17.80;101525.00;;;;5032166;28;20206;-47
2022/01/20 01:00:53;;;;;;;2.80;2.47;;;16.70;55.80;17.80;101524.00;;;;5036508;28;20167;-49
2022/01/20 01:03:18;;;;;;;3.07;2.77;;;16.70;55.70;17.80;101521.00;;;;5050495;28;20202;-50
2022/01/20 01:06:02;;;;;;;2.97;2.67;;;16.70;55.80;17.80;101525.00;;;;5036428;28;20174;-48
2022/01/20 01:08:28;;;;;;;3.20;2.70;;;16.70;55.70;17.80;101530.00;;;;5033643;28;20155;-49
2022/01/20 01:10:53;;;;;;;3.13;2.80;;;16.60;55.60;17.80;101522.00;;;;5039348;28;20190;-49
2022/01/20 01:13:21;;;;;;;3.60;2.83;;;16.60;55.70;17.80;101532.00;;;;5041017;28;20210;-48
2022/01/20 01:15:49;;;;;;;2.47;2.27;;;16.60;55.70;17.80;101532.00;;;;5036175;28;20225;-49
2022/01/20 01:23:46;;;;;;;3.83;2.67;;;16.60;55.60;17.70;101537.00;;;;5033105;28;20179;-48
2022/01/20 01:26:15;;;;;;;2.73;2.53;;;16.60;55.70;17.70;101544.00;;;;5031805;28;20186;-49
2022/01/20 01:28:41;;;;;;;2.73;2.43;;;16.50;55.40;17.70;101519.00;;;;5031111;28;20247;-48
2022/01/20 01:34:05;;;;;;;3.80;3.00;;;16.50;55.50;17.70;101532.00;;;;5032007;28;20198;-48
2022/01/20 01:36:45;;;;;;;4.77;2.80;;;16.50;55.50;17.70;101528.00;;;;5033012;28;20198;-49
2022/01/20 01:39:12;;;;;;;2.73;2.37;;;16.50;55.70;17.60;101523.00;;;;5032109;28;20202;-49
2022/01/20 01:41:38;;;;;;;3.17;2.73;;;16.40;55.40;17.60;101514.00;;;;5033201;28;20550;-49
2022/01/20 01:44:07;;;;;;;3.27;2.77;;;16.40;55.40;17.60;101522.00;;;;5032472;28;20170;-48
2022/01/20 01:46:34;;;;;;;3.50;2.53;;;16.40;55.40;17.60;101531.00;;;;5031546;28;20214;-48
2022/01/20 01:49:00;;;;;;;3.17;2.37;;;16.40;55.40;17.60;101544.00;;;;5031694;28;20175;-48
2022/01/20 01:51:25;;;;;;;3.43;2.50;;;16.40;55.70;17.60;101544.00;;;;5031414;28;20730;-49
2022/01/20 01:53:51;;;;;;;3.80;2.70;;;16.30;55.60;17.50;101465.00;;;;5031167;28;20195;-49
2022/01/20 01:56:17;;;;;;;2.90;2.43;;;16.40;55.80;17.50;101552.00;;;;5031116;28;20237;-49
2022/01/20 01:58:43;;;;;;;3.27;2.40;;;16.40;55.70;17.50;101534.00;;;;5049316;28;20189;-49
2022/01/20 02:01:09;;;;;;;3.30;2.43;;;16.30;55.30;17.50;101538.00;;;;5051365;28;20171;-49
2022/01/20 02:03:43;;;;;;;3.30;2.67;;;16.30;55.60;17.50;101532.00;;;;5052377;28;20240;-48
2022/01/20 02:19:39;;;;;;;3.23;2.57;;;16.20;55.40;17.40;101523.00;;;;5051012;28;20165;-48
2022/01/20 02:22:05;;;;;;;3.53;2.67;;;16.20;55.50;17.40;101525.00;;;;5051417;28;20177;-49
2022/01/20 02:24:31;;;;;;;3.80;2.47;;;16.10;55.30;17.40;101533.00;;;;5052251;28;20171;-48
2022/01/20 02:26:57;;;;;;;3.00;2.70;;;16.20;55.40;17.30;101524.00;;;;5054687;28;20225;-48
2022/01/20 02:29:22;;;;;;;2.80;2.53;;;16.20;55.50;17.30;101541.00;;;;5055587;28;20329;-48
2022/01/20 02:31:54;;;;;;;3.33;2.40;;;16.10;55.60;17.30;101544.00;;;;5055641;28;20189;-49
2022/01/20 02:34:21;;;;;;;3.40;2.40;;;16.10;55.60;17.30;101528.00;;;;5055100;28;20951;-49
2022/01/20 02:36:47;;;;;;;2.80;2.30;;;16.10;55.50;17.30;101528.00;;;;5055147;28;20205;-48
2022/01/20 02:40:13;;;;;;;4.80;2.70;;;16.10;55.50;17.30;101535.00;;;;5055513;28;20273;-49
2022/01/20 02:47:16;;;;;;;3.10;2.57;;;16.10;55.30;17.20;101527.00;;;;5061118;28;20665;-48
2022/01/20 02:49:41;;;;;;;3.20;2.53;;;16.00;55.40;17.20;101525.00;;;;5057962;28;20220;-48
2022/01/20 02:52:07;;;;;;;3.17;2.40;;;16.00;55.20;17.20;101521.00;;;;5055039;28;20170;-48
2022/01/20 02:54:33;;;;;;;3.63;2.40;;;16.00;55.30;17.20;101513.00;;;;5063986;28;20170;-49
2022/01/20 02:57:00;;;;;;;2.73;2.40;;;15.90;55.20;17.10;101503.00;;;;5070473;28;20210;-48
2022/01/20 02:59:25;;;;;;;3.60;2.23;;;15.90;55.50;17.10;101515.00;;;;5055624;28;20158;-49
2022/01/20 03:01:51;;;;;;;4.03;2.33;;;16.00;55.30;17.10;101528.00;;;;5055938;28;20166;-48
2022/01/20 03:04:17;;;;;;;3.07;2.40;;;16.00;55.20;17.10;101512.00;;;;5054663;28;20645;-48
2022/01/20 03:06:43;;;;;;;3.50;2.33;;;16.00;55.20;17.10;101502.00;;;;5055055;28;20198;-49
2022/01/20 03:09:08;;;;;;;3.33;2.47;;;15.90;55.30;17.10;101512.00;;;;5052291;28;20819;-47
2022/01/20 03:11:34;;;;;;;2.97;2.17;;;15.90;55.50;17.10;101506.00;;;;5053959;28;20174;-49
2022/01/20 03:14:00;;;;;;;3.93;2.40;;;15.90;55.40;17.10;101510.00;;;;5054671;28;20206;-49
2022/01/20 03:16:26;;;;;;;3.40;2.30;;;16.00;55.50;17.10;101510.00;;;;5054222;28;20201;-49
2022/01/20 03:18:51;;;;;;;2.67;2.37;;;15.90;55.30;17.10;101518.00;;;;5053317;28;20555;-49
2022/01/20 03:21:17;;;;;;;2.97;2.40;;;15.90;55.50;17.00;101518.00;;;;5054571;28;20185;-49
2022/01/20 03:23:43;;;;;;;2.70;2.40;;;15.90;55.20;17.00;101515.00;;;;5054561;28;20166;-49
2022/01/20 03:26:09;;;;;;;3.83;2.50;;;15.90;55.40;17.00;101514.00;;;;5053599;28;20390;-48
2022/01/20 03:28:35;;;;;;;2.57;2.30;;;15.90;56.00;17.00;101523.00;;;;5054316;28;20178;-48
2022/01/20 03:31:00;;;;;;;2.87;2.20;;;15.90;55.40;17.00;101520.00;;;;5054297;28;20186;-49
2022/01/20 03:33:26;;;;;;;4.03;2.53;;;15.90;55.10;17.00;101513.00;;;;5053917;28;20259;-49
2022/01/20 03:35:53;;;;;;;2.73;2.40;;;15.90;55.50;17.00;101516.00;;;;5054344;28;20178;-49
2022/01/20 03:38:19;;;;;;;3.47;2.50;;;15.80;55.20;17.00;101521.00;;;;5052386;28;20182;-49
2022/01/20 03:40:45;;;;;;;2.90;2.13;;;15.80;55.30;16.90;101505.00;;;;5053035;28;20266;-50
2022/01/20 03:43:10;;;;;;;2.57;2.20;;;15.80;55.20;16.90;101506.00;;;;5054521;28;20174;-48
2022/01/20 03:45:37;;;;;;;2.83;2.20;;;15.80;55.40;16.90;101511.00;;;;5055260;28;20179;-48
2022/01/20 03:48:09;;;;;;;2.63;2.20;;;15.70;55.10;16.90;101521.00;;;;5054930;28;20412;-49
2022/01/20 03:53:20;;;;;;;2.87;2.20;;;15.70;55.30;16.80;101505.00;;;;5052600;28;20252;-50
2022/01/20 03:55:46;;;;;;;2.60;2.27;;;15.70;55.30;16.80;101492.00;;;;5054927;28;20174;-48
2022/01/20 03:58:12;;;;;;;3.20;2.50;;;15.70;55.30;16.80;101490.00;;;;5055050;28;20205;-48
2022/01/20 04:00:37;;;;;;;2.93;2.10;;;15.70;55.30;16.80;101500.00;;;;5054830;28;20284;-48
2022/01/20 04:03:03;;;;;;;3.53;2.30;;;15.70;55.60;16.80;101479.00;;;;5054242;28;20178;-47
2022/01/20 04:05:29;;;;;;;3.00;2.07;;;15.60;55.20;16.80;101489.00;;;;5053809;28;20178;-49
2022/01/20 04:07:54;;;;;;;3.33;2.30;;;15.60;55.00;16.80;101478.00;;;;5053710;28;20202;-48
2022/01/20 04:10:20;;;;;;;2.90;2.10;;;15.60;55.30;16.80;101488.00;;;;5053200;28;20181;-48
2022/01/20 04:12:46;;;;;;;2.33;2.03;;;15.60;55.20;16.80;101502.00;;;;5053201;28;20883;-48
2022/01/20 04:15:12;;;;;;;3.07;2.30;;;15.60;55.00;16.80;101480.00;;;;5053538;28;20170;-48
2022/01/20 04:17:44;;;;;;;2.53;2.00;;;15.60;55.00;16.70;101485.00;;;;5053166;28;20190;-48
2022/01/20 04:20:10;;;;;;;3.23;2.43;;;15.50;55.00;16.70;101495.00;;;;5053482;28;20171;-49
2022/01/20 04:22:36;;;;;;;3.03;2.27;;;15.50;55.10;16.70;101493.00;;;;5055627;28;20170;-49
2022/01/20 04:25:03;;;;;;;2.33;2.07;;;15.50;55.10;16.70;101490.00;;;;5054154;28;20182;-48
2022/01/20 04:27:28;;;;;;;2.97;2.23;;;15.50;55.00;16.70;101494.00;;;;5054330;28;20201;-48
2022/01/20 04:29:54;;;;;;;2.70;2.07;;;15.50;55.10;16.70;101493.00;;;;5052871;28;20174;-48
2022/01/20 04:32:20;;;;;;;2.43;2.00;;;15.50;55.10;16.70;101484.00;;;;5054126;28;20571;-49
2022/01/20 04:34:46;;;;;;;6.43;2.57;;;15.50;55.10;16.70;101474.00;;;;5053338;28;20171;-48
2022/01/20 04:37:12;;;;;;;5.90;2.10;;;15.40;55.70;16.60;101494.00;;;;5053090;28;20240;-48
2022/01/20 04:39:44;;;;;;;2.17;1.93;;;15.40;55.10;16.60;101509.00;;;;5053441;28;20551;-48
2022/01/20 04:42:10;;;;;;;3.60;2.00;;;15.40;55.10;16.60;101504.00;;;;5053542;28;20159;-49
2022/01/20 04:44:46;;;;;;;3.60;2.10;;;15.40;55.10;16.60;101494.00;;;;5053444;28;20534;-49
2022/01/20 04:47:26;;;;;;;5.70;2.50;;;15.40;55.10;16.50;101482.00;;;;5043877;28;20221;-49
2022/01/20 04:58:05;;;;;;;3.90;2.30;;;15.30;55.00;16.50;101497.00;;;;5033692;28;20240;-49
2022/01/20 05:00:31;;;;;;;7.83;2.73;;;15.30;55.00;16.50;101496.00;;;;5032815;28;20174;-50
2022/01/20 05:02:57;;;;;;;6.83;2.43;;;15.30;55.00;16.40;101506.00;;;;5029974;28;20683;-50
2022/01/20 05:05:23;;;;;;;4.40;2.27;;;15.20;54.90;16.40;101500.00;;;;5030978;28;20179;-50
2022/01/20 05:07:49;;;;;;;4.20;2.40;;;15.20;54.90;16.40;101496.00;;;;5031596;28;20632;-49
2022/01/20 05:10:15;;;;;;;6.10;2.50;;;15.20;55.10;16.40;101506.00;;;;5031045;28;20175;-50
2022/01/20 05:13:05;;;;;;;4.93;2.73;;;15.30;55.00;16.40;101506.00;;;;5031912;28;20281;-50
2022/01/20 05:15:32;;;;;;;5.40;2.27;;;15.20;54.90;16.30;101500.00;;;;5030579;28;20789;-50
2022/01/20 05:17:58;;;;;;;11.07;2.50;;;15.20;55.20;16.30;101505.00;;;;5031826;28;20202;-49
2022/01/20 05:20:23;;;;;;;5.23;2.23;;;15.20;55.30;16.30;101504.00;;;;5032305;28;20537;-49
2022/01/20 05:22:49;;;;;;;7.57;2.50;;;15.20;55.90;16.30;101496.00;;;;5043749;28;20704;-49
2022/01/20 05:25:15;;;;;;;6.47;2.17;;;15.20;55.60;16.30;101488.00;;;;5040587;28;20183;-49
2022/01/20 05:27:41;;;;;;;7.27;2.47;;;15.10;55.80;16.30;101502.00;;;;5047631;28;20229;-49
2022/01/20 05:30:07;;;;;;;4.23;2.03;;;15.10;55.60;16.30;101497.00;;;;5038798;28;20814;-50
2022/01/20 05:32:33;;;;;;;6.00;2.57;;;15.10;55.50;16.30;101505.00;;;;5039671;28;20186;-50
2022/01/20 05:34:59;;;;;;;6.73;2.37;;;15.10;55.60;16.30;101514.00;;;;5033015;28;20232;-49
2022/01/20 05:37:24;;;;;;;9.37;2.63;;;15.00;56.00;16.20;101515.00;;;;5030235;28;20197;-50
2022/01/20 05:39:50;;;;;;;8.73;2.80;;;15.00;55.90;16.20;101520.00;;;;5030598;28;20175;-49
2022/01/20 05:42:16;;;;;;;7.03;2.43;;;15.00;55.80;16.20;101518.00;;;;5030337;28;20191;-49
2022/01/20 05:44:43;;;;;;;5.90;2.57;;;15.00;55.90;16.20;101522.00;;;;5030742;28;20167;-49
2022/01/20 05:47:12;;;;;;;5.43;2.40;;;15.00;55.80;16.20;101518.00;;;;5029422;28;20183;-49
2022/01/20 05:49:38;;;;;;;3.60;2.40;;;15.00;55.70;16.20;101523.00;;;;5030082;28;20656;-51
2022/01/20 05:52:04;;;;;;;3.97;2.10;;;15.00;55.80;16.20;101527.00;;;;5030836;28;20167;-49
2022/01/20 05:54:29;;;;;;;4.63;2.37;;;15.00;55.70;16.10;101527.00;;;;5030786;28;20199;-48
2022/01/20 05:56:55;;;;;;;4.40;2.13;;;15.00;56.50;16.10;101543.00;;;;5030332;28;20201;-48
2022/01/20 05:59:21;;;;;;;3.53;2.20;;;15.00;55.90;16.10;101535.00;;;;5030388;28;20171;-48
2022/01/20 06:01:53;;;;;;;5.17;2.20;;;15.00;55.80;16.10;101540.00;;;;5030696;28;20221;-48
2022/01/20 06:04:18;;;;;;;3.50;2.10;;;15.00;55.70;16.10;101552.00;;;;5031924;28;20156;-48
2022/01/20 06:06:44;;;;;;;3.50;2.20;;;14.90;55.80;16.10;101562.00;;;;5031323;28;20197;-49
2022/01/20 06:09:10;;;;;;;3.30;2.13;;;14.90;55.80;16.10;101560.00;;;;5031188;28;20183;-48
2022/01/20 06:11:35;;;;;;;4.17;2.33;;;14.90;55.70;16.10;101559.00;;;;5030745;28;20244;-49
2022/01/20 06:14:03;;;;;;;3.47;2.30;;;14.90;55.70;16.10;101563.00;;;;5048099;28;20206;-48
2022/01/20 06:16:28;;;;;;;3.23;2.03;;;14.90;55.90;16.10;101552.00;;;;5049357;28;20212;-49
2022/01/20 06:18:54;;;;;;;4.17;2.13;;;14.90;55.80;16.10;101563.00;;;;5051036;28;20174;-48
2022/01/20 06:21:20;;;;;;;3.83;2.07;;;14.90;55.90;16.10;101574.00;;;;5050125;28;20171;-48
2022/01/20 06:23:45;;;;;;;3.40;2.20;;;14.80;55.70;16.10;101570.00;;;;5048613;28;20182;-48
2022/01/20 06:26:11;;;;;;;3.70;2.10;;;14.80;55.80;16.10;101573.00;;;;5049917;28;20181;-50
2022/01/20 06:28:37;;;;;;;3.33;2.10;;;14.90;55.80;16.00;101568.00;;;;5050596;28;20233;-48
2022/01/20 06:31:03;;;;;;;3.27;2.10;;;14.90;55.90;16.00;101569.00;;;;5051344;28;20171;-49
2022/01/20 06:33:29;;;;;;;2.60;2.10;;;14.80;55.70;16.00;101569.00;;;;5048971;28;20563;-48
2022/01/20 06:35:55;;;;;;;3.73;2.07;;;14.80;55.80;16.00;101584.00;;;;5049675;28;20175;-53
2022/01/20 06:38:21;;;;;;;2.83;2.20;;;14.80;55.70;16.00;101580.00;;;;5050841;28;20185;-48
2022/01/20 06:40:46;;;;;;;3.97;2.23;;;14.80;55.80;16.00;101592.00;;;;5064107;28;20157;-49
2022/01/20 06:43:12;;;;;;;2.60;2.10;;;14.80;55.80;15.90;101596.00;;;;5065446;28;20300;-48
2022/01/20 06:45:38;;;;;;;3.20;2.03;;;14.80;55.90;16.00;101598.00;;;;5051151;28;20175;-48
2022/01/20 06:48:04;;;;;;;2.90;2.10;;;14.70;55.90;15.90;101614.00;;;;5050877;28;20254;-49
2022/01/20 06:50:29;;;;;;;2.60;1.90;;;14.80;55.80;15.90;101621.00;;;;5052282;28;20846;-48
2022/01/20 06:52:55;;;;;;;2.50;1.77;;;14.70;55.80;15.90;101618.00;;;;5051136;28;20232;-50
2022/01/20 06:55:21;;;;;;;2.67;1.87;;;14.70;55.90;15.90;101631.00;;;;5050338;28;20253;-48
2022/01/20 06:57:47;;;;;;;3.07;1.90;;;14.70;56.10;15.90;101632.00;;;;5049335;28;20205;-49
2022/01/20 07:00:18;;;;;;;3.73;2.00;;;14.70;55.90;15.90;101649.00;;;;5049781;28;20534;-49
2022/01/20 07:02:44;;;;;;;2.00;1.80;;;14.70;56.10;15.90;101626.00;;;;5049365;28;20699;-49
2022/01/20 07:05:12;;;;;;;3.20;2.10;;;14.70;56.10;15.90;101653.00;;;;5049561;28;20179;-49
2022/01/20 07:07:37;;;;;;;4.20;2.13;;;14.70;56.00;15.80;101658.00;;;;5049577;28;20273;-49
2022/01/20 07:10:04;;;;;;;3.17;2.10;;;14.70;55.90;15.80;101660.00;;;;5049572;28;20181;-48
2022/01/20 07:12:30;;;;;;;2.87;2.07;;;14.60;56.60;15.80;101663.00;;;;5050590;28;20182;-49
2022/01/20 07:14:55;;;;;;;3.07;2.10;;;14.60;56.00;15.80;101664.00;;;;5052776;28;20173;-50
2022/01/20 07:17:21;;;;;;;4.33;2.27;;;14.60;56.00;15.80;101671.00;;;;5052951;28;20186;-49
2022/01/20 07:19:47;;;;;;;2.87;2.10;;;14.60;55.90;15.80;101674.00;;;;5053021;28;20560;-48
2022/01/20 07:22:13;;;;;;;3.57;2.27;;;14.60;55.80;15.70;101684.00;;;;5052949;28;20170;-49
2022/01/20 07:24:38;;;;;;;3.37;2.07;;;14.60;56.00;15.70;101698.00;;;;5053619;28;20235;-48
2022/01/20 07:27:04;;;;;;;3.13;2.20;;;14.60;56.10;15.70;101619.00;;;;5053100;28;20213;-48
2022/01/20 07:29:31;;;;;;;2.63;2.13;;;14.50;55.80;15.70;101703.00;;;;5051183;28;20186;-48
2022/01/20 07:31:58;;;;;;;2.30;1.90;;;14.50;56.00;15.70;101700.00;;;;5052322;28;20171;-48
2022/01/20 07:34:24;;;;;;;2.83;1.90;;;14.50;56.30;15.70;101703.00;;;;5053676;28;20221;-48
2022/01/20 07:36:50;;;;;;;2.77;2.07;;;14.50;56.20;15.70;101706.00;;;;5052818;28;20680;-48
2022/01/20 07:39:16;;;;;;;2.87;2.00;;;14.50;56.10;15.70;101713.00;;;;5052839;28;20171;-48
2022/01/20 07:41:42;;;;;;;2.73;2.10;;;14.50;56.10;15.70;101719.00;;;;5054704;28;20185;-49
2022/01/20 07:44:08;;;;;;;2.87;2.00;;;14.50;56.00;15.70;101732.00;;;;5052516;28;20171;-50
2022/01/20 07:46:34;;;;;;;2.53;2.07;;;14.50;56.30;15.60;101732.00;;;;5051915;28;20197;-48
2022/01/20 07:48:59;;;;;;;3.37;2.10;;;14.50;56.30;15.60;101725.00;;;;5052318;28;20182;-49
2022/01/20 07:51:25;;;;;;;2.87;2.20;;;14.50;56.30;15.60;101730.00;;;;5052645;28;20170;-48
2022/01/20 07:53:51;;;;;;;2.20;2.00;;;14.40;56.30;15.60;101719.00;;;;5052951;28;20248;-48
2022/01/20 07:56:17;;;;;;;3.50;2.40;;;14.40;56.40;15.60;101732.00;;;;5056879;28;20162;-48
2022/01/20 07:58:42;;;;;;;2.47;2.10;;;14.40;56.40;15.60;101724.00;;;;5053324;28;20186;-47
2022/01/20 08:01:08;;;;;;;2.90;2.17;;;14.40;56.40;15.60;101741.00;;;;5051943;28;20174;-49
2022/01/20 08:03:34;;;;;;;4.23;2.10;;;14.40;56.40;15.60;101744.00;;;;5052731;28;20668;-50
2022/01/20 08:05:59;;;;;;;5.67;2.40;;;14.30;56.30;15.50;101737.00;;;;5053210;28;20181;-49
2022/01/20 08:08:25;;;;;;;3.07;2.20;;;14.40;56.40;15.50;101748.00;;;;5052728;28;20194;-48
2022/01/20 08:10:51;;;;;;;3.43;2.20;;;14.40;56.40;15.50;101744.00;;;;5052879;28;20521;-49
2022/01/20 08:13:16;;;;;;;2.27;2.07;;;14.40;56.40;15.50;101749.00;;;;5052017;28;20199;-48
2022/01/20 08:15:44;;;;;;;2.53;2.07;;;14.30;56.30;15.50;101742.00;;;;5051559;28;20171;-48
2022/01/20 08:18:09;;;;;;;3.30;2.10;;;14.30;56.30;15.50;101743.00;;;;5052342;28;20202;-49
2022/01/20 08:20:35;;;;;;;2.53;2.00;;;14.30;56.30;15.50;101748.00;;;;5051465;28;20853;-48
2022/01/20 08:23:01;;;;;;;2.60;2.20;;;14.30;56.30;15.50;101745.00;;;;5052653;28;20261;-49
2022/01/20 08:25:27;;;;;;;2.37;2.00;;;14.30;56.20;15.50;101748.00;;;;5051253;28;20186;-49
2022/01/20 08:27:53;;;;;;;3.03;2.10;;;14.40;56.30;15.50;101752.00;;;;5052920;28;20199;-48
2022/01/20 08:30:20;;;;;;;2.57;1.90;;;14.30;56.30;15.50;101752.00;;;;5052181;28;20175;-48
2022/01/20 08:32:46;;;;;;;2.90;2.10;;;14.20;56.40;15.40;101758.00;;;;5055197;28;20198;-49
2022/01/20 08:35:12;;;;;;;3.17;2.20;;;14.20;56.90;15.40;101757.00;;;;5065802;28;20208;-48
2022/01/20 08:37:40;;;;;;;2.63;2.00;;;14.20;57.00;15.40;101767.00;;;;5053194;28;20805;-48
2022/01/20 08:40:13;;;;;;;3.23;2.10;;;14.20;56.60;15.40;101773.00;;;;5053698;28;20427;-48
2022/01/20 08:42:41;;;;;;;2.67;1.80;;;14.20;56.90;15.40;101775.00;;;;5059797;28;20153;-48
2022/01/20 08:45:08;;;;;;;3.63;1.97;;;14.20;56.90;15.40;101770.00;;;;5057606;28;20171;-48
2022/01/20 08:47:33;;;;;;;4.53;2.20;;;14.20;57.20;15.40;101777.00;;;;5052097;28;20469;-48
2022/01/20 08:49:59;;;;;;;3.43;2.07;;;14.10;57.80;15.30;101785.00;;;;5052793;28;20201;-48
2022/01/20 08:52:28;;;;;;;4.53;2.37;;;14.10;57.80;15.30;101783.00;;;;5051956;28;20253;-48
2022/01/20 08:54:55;;;;;;;5.30;1.90;;;14.20;58.30;15.30;101777.00;;;;5052040;28;20217;-49
2022/01/20 08:57:20;;;;;;;4.73;2.20;;;14.10;58.20;15.30;101791.00;;;;5051666;28;20297;-49
2022/01/20 08:59:46;;;;;;;7.90;2.20;;;14.20;58.30;15.30;101793.00;;;;5051332;28;20179;-49
2022/01/20 09:02:12;;;;;;;5.53;2.20;;;14.20;58.30;15.30;101786.00;;;;5061645;28;20173;-50
2022/01/20 09:04:38;;;;;;;5.87;2.30;;;14.20;58.30;15.30;101798.00;;;;5057742;28;20703;-48
2022/01/20 09:07:04;;;;;;;8.30;2.70;;;14.20;57.90;15.30;101799.00;;;;5052751;28;20250;-49
2022/01/20 09:09:29;;;;;;;5.77;2.23;;;14.20;57.50;15.30;101803.00;;;;5054644;28;20186;-48
2022/01/20 09:12:18;;;;;;;6.67;2.43;;;14.20;57.40;15.20;101807.00;;;;5044302;28;20178;-49
2022/01/20 09:17:30;;;;;;;5.67;2.13;;;14.20;57.70;15.20;101812.00;;;;5054232;28;20216;-48
2022/01/20 09:19:56;;;;;;;5.23;2.40;;;14.10;57.40;15.20;101816.00;;;;5052715;28;20269;-48
2022/01/20 09:22:23;;;;;;;4.40;2.20;;;14.10;57.60;15.20;101814.00;;;;5052217;28;20225;-48
2022/01/20 09:24:48;;;;;;;7.33;2.37;;;14.10;57.50;15.20;101799.00;;;;5051270;28;20185;-49
2022/01/20 09:27:14;;;;;;;6.30;2.33;;;14.10;57.40;15.20;101812.00;;;;5051917;28;20194;-47
2022/01/20 09:29:41;;;;;;;3.40;2.40;;;14.10;57.50;15.20;101811.00;;;;5052481;28;20178;-47
2022/01/20 09:32:09;;;;;;;3.07;2.27;;;14.10;57.30;15.20;101803.00;;;;5052954;28;20170;-46
2022/01/20 09:34:35;;;;;;;4.97;2.30;;;14.10;57.50;15.20;101807.00;;;;5051152;28;20289;-48
2022/01/20 09:37:00;;;;;;;3.80;2.37;;;14.10;57.30;15.20;101809.00;;;;5051880;28;20263;-48
2022/01/20 09:39:26;;;;;;;4.33;2.03;;;14.10;57.20;15.20;101815.00;;;;5056302;28;20179;-48
2022/01/20 09:41:52;;;;;;;6.10;2.30;;;14.00;57.40;15.20;101813.00;;;;5054279;28;20177;-48
2022/01/20 09:44:20;;;;;;;4.43;2.20;;;14.10;58.00;15.20;101812.00;;;;5055481;28;20159;-48
2022/01/20 09:46:46;;;;;;;5.00;2.30;;;14.10;57.70;15.20;101829.00;;;;5052496;28;20194;-48
2022/01/20 09:49:12;;;;;;;5.60;2.10;;;14.40;57.50;15.30;101846.00;;;;5066170;28;20225;-48
2022/01/20 09:51:39;;;;;;;3.00;2.07;;;14.70;57.10;15.40;101846.00;;;;5070657;28;20174;-49
2022/01/20 09:54:05;;;;;;;4.23;2.20;;;15.00;56.70;15.50;101845.00;;;;5059396;28;20198;-48
2022/01/20 09:56:32;;;;;;;4.13;2.13;;;15.40;56.30;15.70;101845.00;;;;5032543;28;20202;-48
2022/01/20 09:58:58;;;;;;;5.47;2.23;;;15.70;55.80;15.90;101853.00;;;;5051492;28;20151;-48
2022/01/20 10:01:40;;;;;;;5.90;2.30;;;16.00;55.30;16.10;101840.00;;;;5026917;28;20267;-49
2022/01/20 10:04:23;;;;;;;8.27;1.93;;;16.30;54.90;16.30;101855.00;;;;5014407;28;20196;-48
2022/01/20 10:07:10;;;;;;;4.67;2.00;;;16.40;54.70;16.40;101859.00;;;;5017855;28;20195;-48
2022/01/20 10:09:41;;;;;;;5.13;2.30;;;16.50;54.60;16.50;101871.00;;;;5025786;28;20167;-52
2022/01/20 10:12:09;;;;;;;5.53;2.10;;;16.60;54.70;16.60;101878.00;;;;5016895;28;20179;-49
2022/01/20 10:14:54;;;;;;;8.17;2.37;;;16.60;54.80;16.70;101878.00;;;;5016155;28;20227;-49
2022/01/20 10:17:25;;;;;;;5.70;1.97;;;16.60;54.80;16.80;101882.00;;;;5021680;28;20203;-49
2022/01/20 10:20:02;;;;;;;7.90;2.40;;;16.60;54.80;16.80;101873.00;;;;5031264;28;20174;-47
2022/01/20 10:22:29;;;;;;;4.50;2.13;;;16.60;54.80;16.90;101883.00;;;;5028277;28;20159;-49
2022/01/20 10:25:06;;;;;;;4.63;2.03;;;16.70;54.80;16.90;101870.00;;;;5027518;28;20159;-48
2022/01/20 10:27:48;;;;;;;3.60;1.87;;;16.60;54.80;16.90;101878.00;;;;5034888;28;20190;-49
2022/01/20 10:30:15;;;;;;;5.13;2.17;;;16.60;54.90;17.00;101883.00;;;;5025507;28;20159;-47
2022/01/20 10:32:46;;;;;;;3.47;2.00;;;16.50;54.90;17.00;101886.00;;;;5027527;28;20170;-47
2022/01/20 10:35:14;;;;;;;3.63;2.10;;;16.60;55.10;17.00;101897.00;;;;5027742;28;20262;-47
2022/01/20 10:37:40;;;;;;;2.17;1.63;;;16.50;55.80;17.00;101885.00;;;;5027787;28;20199;-47
2022/01/20 10:40:15;;;;;;;2.43;1.83;;;16.50;55.20;17.00;101891.00;;;;5027944;28;20574;-48
2022/01/20 10:42:45;;;;;;;2.67;1.93;;;16.50;55.20;17.00;101891.00;;;;5028625;28;20165;-48
2022/01/20 10:45:28;;;;;;;4.53;2.17;;;16.50;55.30;17.00;101892.00;;;;5027847;28;20764;-47
2022/01/20 10:47:58;;;;;;;2.10;1.70;;;16.40;55.40;17.00;101895.00;;;;5029448;28;20218;-47
2022/01/20 10:50:30;;;;;;;4.03;1.97;;;16.40;55.50;17.00;101903.00;;;;5031467;28;20512;-48
2022/01/20 10:52:56;;;;;;;3.80;2.10;;;16.40;55.60;17.00;101910.00;;;;5046490;28;20198;-47
2022/01/20 10:55:35;;;;;;;4.07;1.83;;;16.40;55.70;17.00;101904.00;;;;5051744;28;20228;-47
2022/01/20 10:58:22;;;;;;;3.10;2.00;;;16.30;55.70;17.00;101908.00;;;;5051639;28;20707;-48
2022/01/20 11:00:50;;;;;;;2.93;1.90;;;16.30;55.80;17.00;101905.00;;;;5041859;28;20830;-48
2022/01/20 11:03:16;;;;;;;4.17;2.00;;;16.20;55.70;16.90;101915.00;;;;5031136;28;20175;-48
2022/01/20 11:05:45;;;;;;;3.27;2.20;;;16.20;55.70;16.90;101917.00;;;;5031812;28;20182;-47
2022/01/20 11:08:11;;;;;;;2.50;1.90;;;16.20;55.80;16.90;101915.00;;;;5031279;28;20742;-47
2022/01/20 11:10:41;;;;;;;3.17;2.00;;;16.20;55.80;16.90;101905.00;;;;5030926;28;20175;-47
2022/01/20 11:13:07;;;;;;;3.40;1.90;;;16.10;55.70;16.90;101911.00;;;;5031609;28;20245;-48
2022/01/20 11:15:32;;;;;;;3.10;1.90;;;16.10;55.90;16.90;101900.00;;;;5038765;28;20167;-49
2022/01/20 11:17:58;;;;;;;2.13;1.80;;;16.10;56.00;16.90;101915.00;;;;5030667;28;20210;-49
2022/01/20 11:20:26;;;;;;;3.50;1.97;;;16.10;56.00;16.80;101907.00;;;;5030431;28;20530;-48
2022/01/20 11:23:04;;;;;;;2.23;1.80;;;16.00;56.00;16.80;101888.00;;;;5032680;28;20587;-48
2022/01/20 11:25:32;;;;;;;2.27;2.00;;;16.00;56.00;16.80;101901.00;;;;5031720;28;20170;-48
2022/01/20 11:28:18;;;;;;;3.80;2.07;;;16.00;56.10;16.80;101897.00;;;;5032048;28;20191;-48
2022/01/20 11:31:13;;;;;;;6.20;1.90;;;15.90;56.20;16.80;101897.00;;;;5030931;28;20163;-46
2022/01/20 11:33:41;;;;;;;2.93;2.10;;;15.90;56.50;16.70;101897.00;;;;5017964;28;20300;-47
2022/01/20 11:36:24;;;;;;;4.80;2.20;;;15.90;56.60;16.70;101863.00;;;;5031017;28;20167;-48
2022/01/20 11:38:53;;;;;;;5.37;2.07;;;15.90;56.70;16.70;101889.00;;;;5031032;28;20170;-47
2022/01/20 11:41:21;;;;;;;7.10;2.07;;;15.90;56.60;16.70;101895.00;;;;5030797;28;20201;-47
2022/01/20 11:43:51;;;;;;;4.17;2.13;;;15.80;56.70;16.70;101886.00;;;;5030719;28;20955;-47
2022/01/20 11:46:22;;;;;;;2.00;1.80;;;15.80;56.90;16.70;101897.00;;;;5030626;28;20818;-48
2022/01/20 11:49:03;;;;;;;3.67;2.10;;;15.80;56.70;16.60;101877.00;;;;5029821;28;20254;-48
2022/01/20 11:51:41;;;;;;;4.30;1.87;;;15.80;56.60;16.70;101887.00;;;;5030363;28;20654;-48
2022/01/20 11:54:06;;;;;;;3.03;2.00;;;15.80;56.70;16.60;101904.00;;;;5030510;28;20226;-48